Tug Brendan J Bouchard — WCZ5207 — position and weather

sailwx.info

Track history (hours):
 
Tides and Currents Weather Stations Pressure Air Temp Water Temp Dewpoint Dewpoint Depression Visibility Wind Speed Wind Dir Waves Ship Positions

Tug Brendan J Bouchard

Owner: TUG BRENDAN J BOUCHARD CORP, MELVILLE, NY. More information available from US FCC via Universal Licensing System and Coast Guard Vessel Documentation Center.

Last reported at 2017-Dec-03 03:22 UTC. Time now 2017-Dec-13 14:51 UTC.
Position N 25°22' W 080°03'.
Warning: this ship's position is 10 days out of date.

Length 163 m; draft 6.7 m.

Type: Tug. MMSI: 338631000.

Date/timePositionNaut miles runAvg speedWind from/ knotsBaromVisibWave heightAir tempDewpointWater temp
2017-Dec-03 03:22N 25°22' W 080°03'4 7.9
2017-Dec-03 02:55N 25°25' W 080°03'3 8.0
2017-Dec-03 02:30N 25°29' W 080°03'4 8.4
2017-Dec-03 02:00N 25°33' W 080°02'4 8.3
2017-Dec-03 01:30N 25°37' W 080°02'4 8.3
2017-Dec-03 01:00N 25°41' W 080°02'5 9.2
2017-Dec-03 00:30N 25°46' W 080°02'5 9.3
2017-Dec-03 00:00N 25°50' W 080°02'5 9.6
2017-Dec-02 23:30N 25°55' W 080°02'510.1
2017-Dec-02 23:00N 26°00' W 080°02'510.0
2017-Dec-02 22:30N 26°05' W 080°02'5 9.8
2017-Dec-02 22:00N 26°10' W 080°02'510.2
2017-Dec-02 21:30N 26°15' W 080°01'510.4
2017-Dec-02 20:59N 26°20' W 080°01'1010.9
2017-Dec-02 20:05N 26°30' W 080°00'110.2
2017-Dec-02 20:00N 26°31' W 080°00'510.2
2017-Dec-02 19:30N 26°36' W 079°60'5 9.6
2017-Dec-02 19:00N 26°41' W 079°60'5 9.2
2017-Dec-02 18:30N 26°46' W 079°60'5 9.1
2017-Dec-02 18:00N 26°50' W 080°00'5 9.5
2017-Dec-02 17:30N 26°55' W 080°01'5 9.8
2017-Dec-02 17:00N 26°60' W 080°02'510.0
2017-Dec-02 16:30N 27°04' W 080°03'  
2017-Nov-29 16:57N 36°45' W 075°47'510.5
2017-Nov-29 16:29N 36°49' W 075°49'510.6
2017-Nov-29 16:00N 36°53' W 075°54'711.3
2017-Nov-29 15:24N 36°58' W 075°60'510.6
2017-Nov-29 14:59N 37°01' W 076°03'44 9.3
2017-Nov-29 10:13N 37°45' W 076°11'2 9.8
2017-Nov-29 09:58N 37°48' W 076°11'6 9.8
2017-Nov-29 09:25N 37°53' W 076°10'410.2
2017-Nov-29 09:00N 37°57' W 076°11'510.3
2017-Nov-29 08:30N 38°02' W 076°13'510.5
2017-Nov-29 08:00N 38°07' W 076°14'4210.0
2017-Nov-29 03:47N 38°48' W 076°25'3 9.8
2017-Nov-29 03:30N 38°51' W 076°25'5 9.8
2017-Nov-29 03:00N 38°56' W 076°24'5 9.8
2017-Nov-29 02:30N 39°01' W 076°22'510.0
2017-Nov-29 02:00N 39°06' W 076°24'510.0
2017-Nov-29 01:30N 39°10' W 076°26'5 9.7
2017-Nov-29 01:00N 39°13' W 076°31'3 5.6
2017-Nov-29 00:30N 39°15' W 076°33'0 0.0
2017-Nov-28 23:58N 39°15' W 076°33'0 0.0
2017-Nov-28 23:28N 39°15' W 076°33'0 0.0
2017-Nov-28 22:58N 39°15' W 076°33'0 0.0
2017-Nov-28 22:28N 39°15' W 076°33'0 0.0
2017-Nov-28 21:58N 39°15' W 076°33'0 0.0
2017-Nov-28 21:28N 39°15' W 076°33'0 0.0
2017-Nov-28 20:55N 39°15' W 076°33'0 0.0
2017-Nov-28 20:28N 39°15' W 076°33'0 0.0
2017-Nov-28 19:58N 39°15' W 076°33'0 0.0
2017-Nov-28 19:28N 39°15' W 076°33'0 0.0
2017-Nov-28 18:58N 39°15' W 076°34'0 0.0
2017-Nov-28 18:28N 39°15' W 076°33'0 0.0
2017-Nov-28 17:58N 39°15' W 076°33'0 0.0
2017-Nov-28 17:28N 39°15' W 076°33'0 0.0
2017-Nov-28 16:58N 39°15' W 076°33'0 0.0
2017-Nov-28 16:28N 39°15' W 076°33'0 0.0
2017-Nov-28 15:58N 39°15' W 076°33'0 0.1
2017-Nov-28 14:58N 39°15' W 076°34'0 0.0
2017-Nov-28 14:28N 39°15' W 076°33'0 0.0
2017-Nov-28 13:58N 39°15' W 076°33'0 0.0
2017-Nov-28 13:28N 39°15' W 076°33'0 0.1
2017-Nov-28 12:58N 39°15' W 076°33'0 0.2
2017-Nov-28 12:28N 39°15' W 076°34'1 1.4
2017-Nov-28 11:59N 39°15' W 076°34'0 0.0
2017-Nov-28 11:29N 39°15' W 076°34'0 0.0
2017-Nov-28 10:59N 39°15' W 076°34'0 0.0
2017-Nov-28 10:29N 39°15' W 076°34'0 0.0
2017-Nov-28 09:59N 39°15' W 076°34'0 0.0
2017-Nov-28 09:29N 39°15' W 076°34'0 0.0
2017-Nov-28 08:59N 39°15' W 076°34'0 0.0
2017-Nov-28 08:29N 39°15' W 076°34'0 0.0
2017-Nov-28 07:59N 39°15' W 076°34'0 0.0
2017-Nov-28 07:29N 39°15' W 076°34'0 0.0
2017-Nov-28 06:59N 39°15' W 076°34'0 0.0
2017-Nov-28 06:29N 39°15' W 076°34'0 0.0
2017-Nov-28 05:59N 39°15' W 076°34'0 0.0
2017-Nov-28 05:29N 39°15' W 076°34'0 0.0
2017-Nov-28 04:29N 39°15' W 076°34'0 0.0
2017-Nov-28 03:59N 39°15' W 076°34'0 0.0
2017-Nov-28 03:29N 39°15' W 076°34'0 0.0
2017-Nov-28 02:59N 39°15' W 076°34'0 0.0
2017-Nov-28 02:29N 39°15' W 076°34'0 0.0
2017-Nov-28 01:59N 39°15' W 076°34'0 0.0
2017-Nov-28 01:29N 39°15' W 076°34'0 0.0
2017-Nov-28 00:59N 39°15' W 076°34'0 0.0
2017-Nov-28 00:29N 39°15' W 076°34'0 0.0
2017-Nov-27 23:59N 39°15' W 076°34'0 0.0
2017-Nov-27 23:29N 39°15' W 076°34'0 0.0
2017-Nov-27 22:59N 39°15' W 076°34'0 0.0
2017-Nov-27 22:29N 39°15' W 076°34'0 0.0
2017-Nov-27 21:59N 39°15' W 076°34'0 0.0
2017-Nov-27 21:29N 39°15' W 076°34'0 0.0
2017-Nov-27 20:59N 39°15' W 076°34'0 0.0
2017-Nov-27 20:29N 39°15' W 076°34'0 0.1
2017-Nov-27 20:00N 39°15' W 076°34'1 1.6
2017-Nov-27 19:28N 39°15' W 076°33'0 0.0
2017-Nov-27 18:52N 39°15' W 076°33'0 0.0
2017-Nov-27 18:25N 39°15' W 076°33'0 0.0
2017-Nov-27 17:58N 39°15' W 076°33'0 0.0
2017-Nov-27 17:25N 39°15' W 076°33'0 0.0
2017-Nov-27 16:46N 39°15' W 076°33'0 0.0
2017-Nov-27 16:28N 39°15' W 076°33'0 0.0
2017-Nov-27 15:58N 39°15' W 076°33'0 0.0
2017-Nov-27 15:28N 39°15' W 076°33'0 0.0
2017-Nov-27 14:58N 39°15' W 076°33'0 0.0
2017-Nov-27 14:28N 39°15' W 076°33'0 0.0
2017-Nov-27 13:58N 39°15' W 076°33'0 0.1
2017-Nov-27 13:28N 39°15' W 076°33'0 0.1
2017-Nov-27 12:58N 39°15' W 076°33'0 0.0
2017-Nov-27 12:28N 39°15' W 076°33'0 0.0
2017-Nov-27 11:58N 39°15' W 076°33'0 0.0
2017-Nov-27 11:28N 39°15' W 076°33'0 0.0
2017-Nov-27 10:58N 39°15' W 076°33'0 0.0
2017-Nov-27 10:28N 39°15' W 076°33'0 0.1
2017-Nov-27 09:58N 39°15' W 076°33'0 0.0
2017-Nov-27 09:28N 39°15' W 076°33'0 0.0
2017-Nov-27 08:58N 39°15' W 076°33'0 0.2
2017-Nov-27 08:28N 39°15' W 076°33'1 1.4
2017-Nov-27 08:00N 39°14' W 076°33'4 8.4
2017-Nov-27 07:30N 39°12' W 076°29'5 9.7
2017-Nov-27 07:00N 39°08' W 076°24'810.3
2017-Nov-27 06:14N 39°00' W 076°23'210.4
2017-Nov-27 06:00N 38°58' W 076°23'610.4
2017-Nov-27 05:26N 38°52' W 076°24'11510.3
2017-Nov-26 18:17N 36°59' W 076°02'2 8.1
2017-Nov-26 18:00N 36°58' W 076°04'13 8.7
2017-Nov-26 16:31N 36°58' W 076°20'0 9.8
2017-Nov-26 16:30N 36°58' W 076°20'4 7.5
2017-Nov-26 16:00N 36°57' W 076°25'0 0.0
2017-Nov-26 09:04N 36°58' W 076°25'2 0.2
2017-Nov-25 20:49N 36°57' W 076°22'3 8.1
2017-Nov-25 20:30N 36°55' W 076°20'5 9.3
2017-Nov-25 20:00N 36°51' W 076°18'3 6.5
2017-Nov-25 19:30N 36°48' W 076°18'0 0.1
2017-Nov-25 19:00N 36°48' W 076°18'0 0.0
2017-Nov-25 18:30N 36°48' W 076°18'0 0.0
2017-Nov-25 18:00N 36°48' W 076°18'0 0.0
2017-Nov-25 17:30N 36°48' W 076°18'0 0.0
2017-Nov-25 17:00N 36°48' W 076°18'0 0.0
2017-Nov-25 16:30N 36°48' W 076°18'0 0.0
2017-Nov-25 16:00N 36°48' W 076°18'0 0.0
2017-Nov-25 15:30N 36°48' W 076°18'0 0.0
2017-Nov-25 15:00N 36°48' W 076°18'0 0.0
2017-Nov-25 14:30N 36°48' W 076°18'0 0.0
2017-Nov-25 14:00N 36°48' W 076°18'0 0.0
2017-Nov-25 13:30N 36°48' W 076°18'0 0.0
2017-Nov-25 13:00N 36°48' W 076°18'2 4.8
2017-Nov-25 12:31N 36°50' W 076°18'4 8.4
2017-Nov-25 12:00N 36°54' W 076°20'4 8.3
2017-Nov-25 11:30N 36°57' W 076°23'2 1.6
2017-Nov-25 10:33N 36°58' W 076°25'0 0.1
2017-Nov-25 10:30N 36°58' W 076°25'0 0.0
2017-Nov-25 09:42N 36°58' W 076°25'0 0.0
2017-Nov-25 09:23N 36°58' W 076°25'0 0.0
2017-Nov-25 08:59N 36°58' W 076°25'0 0.0
2017-Nov-25 08:29N 36°58' W 076°25'0 0.0
2017-Nov-25 08:00N 36°58' W 076°25'0 0.8
2017-Nov-25 07:25N 36°57' W 076°25'0 0.0
2017-Nov-25 07:00N 36°57' W 076°25'0 0.0
2017-Nov-25 06:29N 36°57' W 076°25'0 0.0
2017-Nov-25 02:50N 36°57' W 076°25'3 4.4
2017-Nov-25 02:13N 36°57' W 076°22'12 7.6
2017-Nov-25 00:37N 36°58' W 076°07'1 8.2
2017-Nov-25 00:30N 36°58' W 076°06'4 8.1
2017-Nov-24 23:59N 36°57' W 076°01'4 8.0
2017-Nov-24 23:30N 36°56' W 075°56'  
Track history (hours):
 
Tides and Currents Weather Stations Pressure Air Temp Water Temp Dewpoint Dewpoint Depression Visibility Wind Speed Wind Dir Waves Ship Positions

Tug Brendan J Bouchard

Owner: TUG BRENDAN J BOUCHARD CORP, MELVILLE, NY. More information available from US FCC via Universal Licensing System and Coast Guard Vessel Documentation Center.

Last reported at 2017-Dec-03 03:22 UTC. Time now 2017-Dec-13 14:51 UTC.
Position N 25°22' W 080°03'.
Warning: this ship's position is 10 days out of date.

Length 163 m; draft 6.7 m.

Type: Tug. MMSI: 338631000.

Date/timePositionNaut miles runAvg speedWind from/ knotsBaromVisibWave heightAir tempDewpointWater temp
2017-Dec-03 03:22N 25°22' W 080°03'4 7.9
2017-Dec-03 02:55N 25°25' W 080°03'3 8.0
2017-Dec-03 02:30N 25°29' W 080°03'4 8.4
2017-Dec-03 02:00N 25°33' W 080°02'4 8.3
2017-Dec-03 01:30N 25°37' W 080°02'4 8.3
2017-Dec-03 01:00N 25°41' W 080°02'5 9.2
2017-Dec-03 00:30N 25°46' W 080°02'5 9.3
2017-Dec-03 00:00N 25°50' W 080°02'5 9.6
2017-Dec-02 23:30N 25°55' W 080°02'510.1
2017-Dec-02 23:00N 26°00' W 080°02'510.0
2017-Dec-02 22:30N 26°05' W 080°02'5 9.8
2017-Dec-02 22:00N 26°10' W 080°02'510.2
2017-Dec-02 21:30N 26°15' W 080°01'510.4
2017-Dec-02 20:59N 26°20' W 080°01'1010.9
2017-Dec-02 20:05N 26°30' W 080°00'110.2
2017-Dec-02 20:00N 26°31' W 080°00'510.2
2017-Dec-02 19:30N 26°36' W 079°60'5 9.6
2017-Dec-02 19:00N 26°41' W 079°60'5 9.2
2017-Dec-02 18:30N 26°46' W 079°60'5 9.1
2017-Dec-02 18:00N 26°50' W 080°00'5 9.5
2017-Dec-02 17:30N 26°55' W 080°01'5 9.8
2017-Dec-02 17:00N 26°60' W 080°02'510.0
2017-Dec-02 16:30N 27°04' W 080°03'  
2017-Nov-29 16:57N 36°45' W 075°47'510.5
2017-Nov-29 16:29N 36°49' W 075°49'510.6
2017-Nov-29 16:00N 36°53' W 075°54'711.3
2017-Nov-29 15:24N 36°58' W 075°60'510.6
2017-Nov-29 14:59N 37°01' W 076°03'44 9.3
2017-Nov-29 10:13N 37°45' W 076°11'2 9.8
2017-Nov-29 09:58N 37°48' W 076°11'6 9.8
2017-Nov-29 09:25N 37°53' W 076°10'410.2
2017-Nov-29 09:00N 37°57' W 076°11'510.3
2017-Nov-29 08:30N 38°02' W 076°13'510.5
2017-Nov-29 08:00N 38°07' W 076°14'4210.0
2017-Nov-29 03:47N 38°48' W 076°25'3 9.8
2017-Nov-29 03:30N 38°51' W 076°25'5 9.8
2017-Nov-29 03:00N 38°56' W 076°24'5 9.8
2017-Nov-29 02:30N 39°01' W 076°22'510.0
2017-Nov-29 02:00N 39°06' W 076°24'510.0
2017-Nov-29 01:30N 39°10' W 076°26'5 9.7
2017-Nov-29 01:00N 39°13' W 076°31'3 5.6
2017-Nov-29 00:30N 39°15' W 076°33'0 0.0
2017-Nov-28 23:58N 39°15' W 076°33'0 0.0
2017-Nov-28 23:28N 39°15' W 076°33'0 0.0
2017-Nov-28 22:58N 39°15' W 076°33'0 0.0
2017-Nov-28 22:28N 39°15' W 076°33'0 0.0
2017-Nov-28 21:58N 39°15' W 076°33'0 0.0
2017-Nov-28 21:28N 39°15' W 076°33'0 0.0
2017-Nov-28 20:55N 39°15' W 076°33'0 0.0
2017-Nov-28 20:28N 39°15' W 076°33'0 0.0
2017-Nov-28 19:58N 39°15' W 076°33'0 0.0
2017-Nov-28 19:28N 39°15' W 076°33'0 0.0
2017-Nov-28 18:58N 39°15' W 076°34'0 0.0
2017-Nov-28 18:28N 39°15' W 076°33'0 0.0
2017-Nov-28 17:58N 39°15' W 076°33'0 0.0
2017-Nov-28 17:28N 39°15' W 076°33'0 0.0
2017-Nov-28 16:58N 39°15' W 076°33'0 0.0
2017-Nov-28 16:28N 39°15' W 076°33'0 0.0
2017-Nov-28 15:58N 39°15' W 076°33'0 0.1
2017-Nov-28 14:58N 39°15' W 076°34'0 0.0
2017-Nov-28 14:28N 39°15' W 076°33'0 0.0
2017-Nov-28 13:58N 39°15' W 076°33'0 0.0
2017-Nov-28 13:28N 39°15' W 076°33'0 0.1
2017-Nov-28 12:58N 39°15' W 076°33'0 0.2
2017-Nov-28 12:28N 39°15' W 076°34'1 1.4
2017-Nov-28 11:59N 39°15' W 076°34'0 0.0
2017-Nov-28 11:29N 39°15' W 076°34'0 0.0
2017-Nov-28 10:59N 39°15' W 076°34'0 0.0
2017-Nov-28 10:29N 39°15' W 076°34'0 0.0
2017-Nov-28 09:59N 39°15' W 076°34'0 0.0
2017-Nov-28 09:29N 39°15' W 076°34'0 0.0
2017-Nov-28 08:59N 39°15' W 076°34'0 0.0
2017-Nov-28 08:29N 39°15' W 076°34'0 0.0
2017-Nov-28 07:59N 39°15' W 076°34'0 0.0
2017-Nov-28 07:29N 39°15' W 076°34'0 0.0
2017-Nov-28 06:59N 39°15' W 076°34'0 0.0
2017-Nov-28 06:29N 39°15' W 076°34'0 0.0
2017-Nov-28 05:59N 39°15' W 076°34'0 0.0
2017-Nov-28 05:29N 39°15' W 076°34'0 0.0
2017-Nov-28 04:29N 39°15' W 076°34'0 0.0
2017-Nov-28 03:59N 39°15' W 076°34'0 0.0
2017-Nov-28 03:29N 39°15' W 076°34'0 0.0
2017-Nov-28 02:59N 39°15' W 076°34'0 0.0
2017-Nov-28 02:29N 39°15' W 076°34'0 0.0
2017-Nov-28 01:59N 39°15' W 076°34'0 0.0
2017-Nov-28 01:29N 39°15' W 076°34'0 0.0
2017-Nov-28 00:59N 39°15' W 076°34'0 0.0
2017-Nov-28 00:29N 39°15' W 076°34'0 0.0
2017-Nov-27 23:59N 39°15' W 076°34'0 0.0
2017-Nov-27 23:29N 39°15' W 076°34'0 0.0
2017-Nov-27 22:59N 39°15' W 076°34'0 0.0
2017-Nov-27 22:29N 39°15' W 076°34'0 0.0
2017-Nov-27 21:59N 39°15' W 076°34'0 0.0
2017-Nov-27 21:29N 39°15' W 076°34'0 0.0
2017-Nov-27 20:59N 39°15' W 076°34'0 0.0
2017-Nov-27 20:29N 39°15' W 076°34'0 0.1
2017-Nov-27 20:00N 39°15' W 076°34'1 1.6
2017-Nov-27 19:28N 39°15' W 076°33'0 0.0
2017-Nov-27 18:52N 39°15' W 076°33'0 0.0
2017-Nov-27 18:25N 39°15' W 076°33'0 0.0
2017-Nov-27 17:58N 39°15' W 076°33'0 0.0
2017-Nov-27 17:25N 39°15' W 076°33'0 0.0
2017-Nov-27 16:46N 39°15' W 076°33'0 0.0
2017-Nov-27 16:28N 39°15' W 076°33'0 0.0
2017-Nov-27 15:58N 39°15' W 076°33'0 0.0
2017-Nov-27 15:28N 39°15' W 076°33'0 0.0
2017-Nov-27 14:58N 39°15' W 076°33'0 0.0
2017-Nov-27 14:28N 39°15' W 076°33'0 0.0
2017-Nov-27 13:58N 39°15' W 076°33'0 0.1
2017-Nov-27 13:28N 39°15' W 076°33'0 0.1
2017-Nov-27 12:58N 39°15' W 076°33'0 0.0
2017-Nov-27 12:28N 39°15' W 076°33'0 0.0
2017-Nov-27 11:58N 39°15' W 076°33'0 0.0
2017-Nov-27 11:28N 39°15' W 076°33'0 0.0
2017-Nov-27 10:58N 39°15' W 076°33'0 0.0
2017-Nov-27 10:28N 39°15' W 076°33'0 0.1
2017-Nov-27 09:58N 39°15' W 076°33'0 0.0
2017-Nov-27 09:28N 39°15' W 076°33'0 0.0
2017-Nov-27 08:58N 39°15' W 076°33'0 0.2
2017-Nov-27 08:28N 39°15' W 076°33'1 1.4
2017-Nov-27 08:00N 39°14' W 076°33'4 8.4
2017-Nov-27 07:30N 39°12' W 076°29'5 9.7
2017-Nov-27 07:00N 39°08' W 076°24'810.3
2017-Nov-27 06:14N 39°00' W 076°23'210.4
2017-Nov-27 06:00N 38°58' W 076°23'610.4
2017-Nov-27 05:26N 38°52' W 076°24'11510.3
2017-Nov-26 18:17N 36°59' W 076°02'2 8.1
2017-Nov-26 18:00N 36°58' W 076°04'13 8.7
2017-Nov-26 16:31N 36°58' W 076°20'0 9.8
2017-Nov-26 16:30N 36°58' W 076°20'4 7.5
2017-Nov-26 16:00N 36°57' W 076°25'0 0.0
2017-Nov-26 09:04N 36°58' W 076°25'2 0.2
2017-Nov-25 20:49N 36°57' W 076°22'3 8.1
2017-Nov-25 20:30N 36°55' W 076°20'5 9.3
2017-Nov-25 20:00N 36°51' W 076°18'3 6.5
2017-Nov-25 19:30N 36°48' W 076°18'0 0.1
2017-Nov-25 19:00N 36°48' W 076°18'0 0.0
2017-Nov-25 18:30N 36°48' W 076°18'0 0.0
2017-Nov-25 18:00N 36°48' W 076°18'0 0.0
2017-Nov-25 17:30N 36°48' W 076°18'0 0.0
2017-Nov-25 17:00N 36°48' W 076°18'0 0.0
2017-Nov-25 16:30N 36°48' W 076°18'0 0.0
2017-Nov-25 16:00N 36°48' W 076°18'0 0.0
2017-Nov-25 15:30N 36°48' W 076°18'0 0.0
2017-Nov-25 15:00N 36°48' W 076°18'0 0.0
2017-Nov-25 14:30N 36°48' W 076°18'0 0.0
2017-Nov-25 14:00N 36°48' W 076°18'0 0.0
2017-Nov-25 13:30N 36°48' W 076°18'0 0.0
2017-Nov-25 13:00N 36°48' W 076°18'2 4.8
2017-Nov-25 12:31N 36°50' W 076°18'4 8.4
2017-Nov-25 12:00N 36°54' W 076°20'4 8.3
2017-Nov-25 11:30N 36°57' W 076°23'2 1.6
2017-Nov-25 10:33N 36°58' W 076°25'0 0.1
2017-Nov-25 10:30N 36°58' W 076°25'0 0.0
2017-Nov-25 09:42N 36°58' W 076°25'0 0.0
2017-Nov-25 09:23N 36°58' W 076°25'0 0.0
2017-Nov-25 08:59N 36°58' W 076°25'0 0.0
2017-Nov-25 08:29N 36°58' W 076°25'0 0.0
2017-Nov-25 08:00N 36°58' W 076°25'0 0.8
2017-Nov-25 07:25N 36°57' W 076°25'0 0.0
2017-Nov-25 07:00N 36°57' W 076°25'0 0.0
2017-Nov-25 06:29N 36°57' W 076°25'0 0.0
2017-Nov-25 02:50N 36°57' W 076°25'3 4.4
2017-Nov-25 02:13N 36°57' W 076°22'12 7.6
2017-Nov-25 00:37N 36°58' W 076°07'1 8.2
2017-Nov-25 00:30N 36°58' W 076°06'4 8.1
2017-Nov-24 23:59N 36°57' W 076°01'4 8.0
2017-Nov-24 23:30N 36°56' W 075°56'  

Dump ship's entire track history